sensor_id;sensor_type;location;lat;lon;timestamp;P1;durP1;ratioP1;P2;durP2;ratioP2
6007;SDS011;3032;49.484;11.112;2023-06-19T00:02:06;11.53;;;10.53;;
6007;SDS011;3032;49.484;11.112;2023-06-19T00:04:31;13.80;;;12.50;;
6007;SDS011;3032;49.484;11.112;2023-06-19T00:06:58;12.83;;;11.70;;
6007;SDS011;3032;49.484;11.112;2023-06-19T00:09:24;13.43;;;12.05;;
6007;SDS011;3032;49.484;11.112;2023-06-19T00:11:50;12.50;;;11.40;;
6007;SDS011;3032;49.484;11.112;2023-06-19T00:14:16;11.70;;;10.60;;
6007;SDS011;3032;49.484;11.112;2023-06-19T00:16:42;12.38;;;11.18;;
6007;SDS011;3032;49.484;11.112;2023-06-19T00:19:08;13.75;;;12.35;;
6007;SDS011;3032;49.484;11.112;2023-06-19T00:21:35;12.43;;;11.30;;
6007;SDS011;3032;49.484;11.112;2023-06-19T00:24:02;13.23;;;12.02;;
6007;SDS011;3032;49.484;11.112;2023-06-19T00:26:28;14.30;;;12.73;;
6007;SDS011;3032;49.484;11.112;2023-06-19T00:28:54;11.77;;;10.67;;
6007;SDS011;3032;49.484;11.112;2023-06-19T00:31:19;12.40;;;11.33;;
6007;SDS011;3032;49.484;11.112;2023-06-19T00:33:45;12.23;;;11.13;;
6007;SDS011;3032;49.484;11.112;2023-06-19T00:36:15;11.45;;;10.52;;
6007;SDS011;3032;49.484;11.112;2023-06-19T00:38:46;11.98;;;10.77;;
6007;SDS011;3032;49.484;11.112;2023-06-19T00:41:13;12.73;;;11.40;;
6007;SDS011;3032;49.484;11.112;2023-06-19T00:43:39;13.00;;;11.73;;
6007;SDS011;3032;49.484;11.112;2023-06-19T00:46:05;12.67;;;11.57;;
6007;SDS011;3032;49.484;11.112;2023-06-19T00:48:31;11.77;;;10.57;;
6007;SDS011;3032;49.484;11.112;2023-06-19T00:51:03;10.68;;;9.70;;
6007;SDS011;3032;49.484;11.112;2023-06-19T00:53:28;11.30;;;10.30;;
6007;SDS011;3032;49.484;11.112;2023-06-19T00:55:57;12.30;;;10.50;;
6007;SDS011;3032;49.484;11.112;2023-06-19T00:58:25;11.02;;;9.85;;
6007;SDS011;3032;49.484;11.112;2023-06-19T01:00:52;11.88;;;10.80;;
6007;SDS011;3032;49.484;11.112;2023-06-19T01:03:18;12.65;;;11.35;;
6007;SDS011;3032;49.484;11.112;2023-06-19T01:05:45;13.37;;;12.00;;
6007;SDS011;3032;49.484;11.112;2023-06-19T01:11:22;11.55;;;10.55;;
6007;SDS011;3032;49.484;11.112;2023-06-19T01:13:53;12.20;;;11.13;;
6007;SDS011;3032;49.484;11.112;2023-06-19T01:16:25;13.00;;;11.60;;
6007;SDS011;3032;49.484;11.112;2023-06-19T01:18:51;14.95;;;12.50;;
6007;SDS011;3032;49.484;11.112;2023-06-19T01:21:18;12.37;;;11.10;;
6007;SDS011;3032;49.484;11.112;2023-06-19T01:23:44;11.40;;;10.30;;
6007;SDS011;3032;49.484;11.112;2023-06-19T01:26:10;12.68;;;11.40;;
6007;SDS011;3032;49.484;11.112;2023-06-19T01:28:37;11.07;;;10.00;;
6007;SDS011;3032;49.484;11.112;2023-06-19T01:31:06;11.45;;;10.40;;
6007;SDS011;3032;49.484;11.112;2023-06-19T01:33:40;11.13;;;10.00;;
6007;SDS011;3032;49.484;11.112;2023-06-19T01:36:08;11.35;;;10.23;;
6007;SDS011;3032;49.484;11.112;2023-06-19T01:38:34;12.25;;;10.98;;
6007;SDS011;3032;49.484;11.112;2023-06-19T01:41:01;12.68;;;11.38;;
6007;SDS011;3032;49.484;11.112;2023-06-19T01:43:29;13.20;;;12.00;;
6007;SDS011;3032;49.484;11.112;2023-06-19T01:45:56;12.00;;;10.98;;
6007;SDS011;3032;49.484;11.112;2023-06-19T01:48:23;11.90;;;10.90;;
6007;SDS011;3032;49.484;11.112;2023-06-19T01:50:49;11.77;;;10.77;;
6007;SDS011;3032;49.484;11.112;2023-06-19T01:53:17;13.55;;;12.30;;
6007;SDS011;3032;49.484;11.112;2023-06-19T01:55:43;12.82;;;11.68;;
6007;SDS011;3032;49.484;11.112;2023-06-19T01:58:09;12.35;;;11.15;;
6007;SDS011;3032;49.484;11.112;2023-06-19T02:00:34;14.00;;;12.60;;
6007;SDS011;3032;49.484;11.112;2023-06-19T02:03:00;12.63;;;11.43;;
6007;SDS011;3032;49.484;11.112;2023-06-19T02:05:26;11.75;;;10.65;;
6007;SDS011;3032;49.484;11.112;2023-06-19T02:07:52;12.90;;;11.60;;
6007;SDS011;3032;49.484;11.112;2023-06-19T02:10:17;13.20;;;11.83;;
6007;SDS011;3032;49.484;11.112;2023-06-19T02:12:45;12.93;;;11.63;;
6007;SDS011;3032;49.484;11.112;2023-06-19T02:15:10;12.05;;;10.90;;
6007;SDS011;3032;49.484;11.112;2023-06-19T02:17:37;12.33;;;11.13;;
6007;SDS011;3032;49.484;11.112;2023-06-19T02:20:03;14.35;;;12.05;;
6007;SDS011;3032;49.484;11.112;2023-06-19T02:22:33;11.95;;;10.90;;
6007;SDS011;3032;49.484;11.112;2023-06-19T02:24:59;12.60;;;11.50;;
6007;SDS011;3032;49.484;11.112;2023-06-19T02:27:25;13.17;;;12.00;;
6007;SDS011;3032;49.484;11.112;2023-06-19T02:29:50;12.70;;;11.50;;
6007;SDS011;3032;49.484;11.112;2023-06-19T02:32:16;12.87;;;11.67;;
6007;SDS011;3032;49.484;11.112;2023-06-19T02:34:41;11.80;;;10.70;;
6007;SDS011;3032;49.484;11.112;2023-06-19T02:37:07;14.77;;;12.40;;
6007;SDS011;3032;49.484;11.112;2023-06-19T02:39:33;12.33;;;11.20;;
6007;SDS011;3032;49.484;11.112;2023-06-19T02:41:58;13.40;;;12.10;;
6007;SDS011;3032;49.484;11.112;2023-06-19T02:44:24;14.35;;;12.88;;
6007;SDS011;3032;49.484;11.112;2023-06-19T02:46:50;13.87;;;12.50;;
6007;SDS011;3032;49.484;11.112;2023-06-19T02:49:15;13.93;;;12.53;;
6007;SDS011;3032;49.484;11.112;2023-06-19T02:51:41;13.47;;;12.17;;
6007;SDS011;3032;49.484;11.112;2023-06-19T02:54:07;15.80;;;11.97;;
6007;SDS011;3032;49.484;11.112;2023-06-19T02:56:32;11.73;;;10.60;;
6007;SDS011;3032;49.484;11.112;2023-06-19T02:58:58;12.97;;;11.43;;
6007;SDS011;3032;49.484;11.112;2023-06-19T03:01:23;12.50;;;11.13;;
6007;SDS011;3032;49.484;11.112;2023-06-19T03:03:49;12.73;;;11.53;;
6007;SDS011;3032;49.484;11.112;2023-06-19T03:06:17;11.75;;;10.63;;
6007;SDS011;3032;49.484;11.112;2023-06-19T03:08:43;14.00;;;12.50;;
6007;SDS011;3032;49.484;11.112;2023-06-19T03:11:10;14.63;;;11.57;;
6007;SDS011;3032;49.484;11.112;2023-06-19T03:13:49;13.75;;;12.35;;
6007;SDS011;3032;49.484;11.112;2023-06-19T03:16:16;11.98;;;10.80;;
6007;SDS011;3032;49.484;11.112;2023-06-19T03:18:42;13.27;;;11.97;;
6007;SDS011;3032;49.484;11.112;2023-06-19T03:21:09;12.30;;;11.20;;
6007;SDS011;3032;49.484;11.112;2023-06-19T03:23:35;11.80;;;10.63;;
6007;SDS011;3032;49.484;11.112;2023-06-19T03:26:01;11.95;;;10.75;;
6007;SDS011;3032;49.484;11.112;2023-06-19T03:28:27;11.60;;;10.33;;
6007;SDS011;3032;49.484;11.112;2023-06-19T03:30:54;13.00;;;11.65;;
6007;SDS011;3032;49.484;11.112;2023-06-19T03:33:19;12.90;;;11.80;;
6007;SDS011;3032;49.484;11.112;2023-06-19T03:35:46;12.33;;;11.13;;
6007;SDS011;3032;49.484;11.112;2023-06-19T03:38:13;10.43;;;9.35;;
6007;SDS011;3032;49.484;11.112;2023-06-19T03:40:39;14.83;;;10.97;;
6007;SDS011;3032;49.484;11.112;2023-06-19T03:43:04;12.53;;;11.33;;
6007;SDS011;3032;49.484;11.112;2023-06-19T03:45:30;12.63;;;11.27;;
6007;SDS011;3032;49.484;11.112;2023-06-19T03:47:55;11.37;;;10.37;;
6007;SDS011;3032;49.484;11.112;2023-06-19T03:50:21;11.13;;;10.13;;
6007;SDS011;3032;49.484;11.112;2023-06-19T03:52:46;12.80;;;11.50;;
6007;SDS011;3032;49.484;11.112;2023-06-19T03:55:12;11.70;;;10.60;;
6007;SDS011;3032;49.484;11.112;2023-06-19T03:57:37;11.37;;;10.27;;
6007;SDS011;3032;49.484;11.112;2023-06-19T04:00:04;16.23;;;10.70;;
6007;SDS011;3032;49.484;11.112;2023-06-19T04:02:36;11.40;;;10.43;;
6007;SDS011;3032;49.484;11.112;2023-06-19T04:05:01;12.10;;;10.23;;
6007;SDS011;3032;49.484;11.112;2023-06-19T04:07:28;12.38;;;11.20;;
6007;SDS011;3032;49.484;11.112;2023-06-19T04:09:53;11.23;;;9.40;;
6007;SDS011;3032;49.484;11.112;2023-06-19T04:15:32;14.23;;;11.02;;
6007;SDS011;3032;49.484;11.112;2023-06-19T04:17:58;11.68;;;10.48;;
6007;SDS011;3032;49.484;11.112;2023-06-19T04:20:25;11.73;;;10.43;;
6007;SDS011;3032;49.484;11.112;2023-06-19T04:22:51;11.43;;;10.17;;
6007;SDS011;3032;49.484;11.112;2023-06-19T04:25:17;10.70;;;9.70;;
6007;SDS011;3032;49.484;11.112;2023-06-19T04:27:43;10.98;;;9.30;;
6007;SDS011;3032;49.484;11.112;2023-06-19T04:30:09;12.90;;;11.52;;
6007;SDS011;3032;49.484;11.112;2023-06-19T04:32:35;10.85;;;9.85;;
6007;SDS011;3032;49.484;11.112;2023-06-19T04:35:05;10.43;;;9.40;;
6007;SDS011;3032;49.484;11.112;2023-06-19T04:37:34;12.88;;;9.90;;
6007;SDS011;3032;49.484;11.112;2023-06-19T04:40:00;11.37;;;9.77;;
6007;SDS011;3032;49.484;11.112;2023-06-19T04:42:25;12.43;;;11.30;;
6007;SDS011;3032;49.484;11.112;2023-06-19T04:44:52;12.23;;;10.20;;
6007;SDS011;3032;49.484;11.112;2023-06-19T04:47:19;13.90;;;10.57;;
6007;SDS011;3032;49.484;11.112;2023-06-19T04:49:47;10.85;;;9.75;;
6007;SDS011;3032;49.484;11.112;2023-06-19T04:52:12;11.80;;;10.60;;
6007;SDS011;3032;49.484;11.112;2023-06-19T04:54:38;10.27;;;9.33;;
6007;SDS011;3032;49.484;11.112;2023-06-19T04:57:04;13.53;;;9.57;;
6007;SDS011;3032;49.484;11.112;2023-06-19T04:59:30;12.20;;;10.57;;
6007;SDS011;3032;49.484;11.112;2023-06-19T05:01:56;11.60;;;10.03;;
6007;SDS011;3032;49.484;11.112;2023-06-19T05:04:22;10.40;;;9.40;;
6007;SDS011;3032;49.484;11.112;2023-06-19T05:06:48;10.63;;;9.50;;
6007;SDS011;3032;49.484;11.112;2023-06-19T05:09:14;12.60;;;11.25;;
6007;SDS011;3032;49.484;11.112;2023-06-19T05:11:40;11.70;;;10.30;;
6007;SDS011;3032;49.484;11.112;2023-06-19T05:14:05;10.77;;;9.77;;
6007;SDS011;3032;49.484;11.112;2023-06-19T05:16:32;10.20;;;8.95;;
6007;SDS011;3032;49.484;11.112;2023-06-19T05:18:58;11.30;;;10.10;;
6007;SDS011;3032;49.484;11.112;2023-06-19T05:21:24;12.23;;;10.25;;
6007;SDS011;3032;49.484;11.112;2023-06-19T05:23:50;11.37;;;9.33;;
6007;SDS011;3032;49.484;11.112;2023-06-19T05:26:18;11.98;;;9.93;;
6007;SDS011;3032;49.484;11.112;2023-06-19T05:28:50;12.23;;;10.98;;
6007;SDS011;3032;49.484;11.112;2023-06-19T05:31:17;10.40;;;9.40;;
6007;SDS011;3032;49.484;11.112;2023-06-19T05:33:43;11.00;;;9.85;;
6007;SDS011;3032;49.484;11.112;2023-06-19T05:36:09;11.00;;;9.85;;
6007;SDS011;3032;49.484;11.112;2023-06-19T05:38:35;11.90;;;9.80;;
6007;SDS011;3032;49.484;11.112;2023-06-19T05:41:01;10.93;;;9.53;;
6007;SDS011;3032;49.484;11.112;2023-06-19T05:43:27;11.38;;;9.40;;
6007;SDS011;3032;49.484;11.112;2023-06-19T05:45:54;10.43;;;9.05;;
6007;SDS011;3032;49.484;11.112;2023-06-19T05:48:21;11.20;;;8.95;;
6007;SDS011;3032;49.484;11.112;2023-06-19T05:50:46;12.50;;;8.83;;
6007;SDS011;3032;49.484;11.112;2023-06-19T05:53:12;10.53;;;9.40;;
6007;SDS011;3032;49.484;11.112;2023-06-19T05:55:37;12.17;;;9.40;;
6007;SDS011;3032;49.484;11.112;2023-06-19T05:58:03;9.63;;;8.73;;
6007;SDS011;3032;49.484;11.112;2023-06-19T06:00:29;9.00;;;8.20;;
6007;SDS011;3032;49.484;11.112;2023-06-19T06:02:58;8.05;;;7.30;;
6007;SDS011;3032;49.484;11.112;2023-06-19T06:05:27;11.32;;;7.03;;
6007;SDS011;3032;49.484;11.112;2023-06-19T06:07:53;7.73;;;6.97;;
6007;SDS011;3032;49.484;11.112;2023-06-19T06:10:23;7.30;;;6.60;;
6007;SDS011;3032;49.484;11.112;2023-06-19T06:12:50;6.90;;;6.30;;
6007;SDS011;3032;49.484;11.112;2023-06-19T06:15:15;7.43;;;6.73;;
6007;SDS011;3032;49.484;11.112;2023-06-19T06:17:41;7.30;;;6.17;;
6007;SDS011;3032;49.484;11.112;2023-06-19T06:20:07;6.37;;;5.80;;
6007;SDS011;3032;49.484;11.112;2023-06-19T06:22:37;7.20;;;6.55;;
6007;SDS011;3032;49.484;11.112;2023-06-19T06:25:04;7.20;;;6.60;;
6007;SDS011;3032;49.484;11.112;2023-06-19T06:27:30;7.67;;;7.07;;
6007;SDS011;3032;49.484;11.112;2023-06-19T06:29:55;7.77;;;6.80;;
6007;SDS011;3032;49.484;11.112;2023-06-19T06:32:21;7.47;;;6.77;;
6007;SDS011;3032;49.484;11.112;2023-06-19T06:34:46;8.40;;;6.60;;
6007;SDS011;3032;49.484;11.112;2023-06-19T06:37:12;7.33;;;6.63;;
6007;SDS011;3032;49.484;11.112;2023-06-19T06:39:38;6.90;;;6.40;;
6007;SDS011;3032;49.484;11.112;2023-06-19T06:42:03;8.03;;;6.67;;
6007;SDS011;3032;49.484;11.112;2023-06-19T06:44:29;7.53;;;6.93;;
6007;SDS011;3032;49.484;11.112;2023-06-19T06:46:55;7.03;;;6.43;;
6007;SDS011;3032;49.484;11.112;2023-06-19T06:49:20;7.80;;;7.00;;
6007;SDS011;3032;49.484;11.112;2023-06-19T06:51:47;8.02;;;7.05;;
6007;SDS011;3032;49.484;11.112;2023-06-19T06:54:12;7.70;;;7.00;;
6007;SDS011;3032;49.484;11.112;2023-06-19T06:56:38;7.40;;;6.80;;
6007;SDS011;3032;49.484;11.112;2023-06-19T06:59:04;7.63;;;6.93;;
6007;SDS011;3032;49.484;11.112;2023-06-19T07:01:29;12.00;;;6.77;;
6007;SDS011;3032;49.484;11.112;2023-06-19T07:03:55;8.60;;;7.17;;
6007;SDS011;3032;49.484;11.112;2023-06-19T07:06:20;7.50;;;6.63;;
6007;SDS011;3032;49.484;11.112;2023-06-19T07:08:46;6.80;;;6.17;;
6007;SDS011;3032;49.484;11.112;2023-06-19T07:11:13;6.93;;;6.30;;
6007;SDS011;3032;49.484;11.112;2023-06-19T07:13:39;6.65;;;5.85;;
6007;SDS011;3032;49.484;11.112;2023-06-19T07:16:06;6.82;;;6.10;;
6007;SDS011;3032;49.484;11.112;2023-06-19T07:18:32;7.88;;;6.82;;
6007;SDS011;3032;49.484;11.112;2023-06-19T07:21:00;7.32;;;6.30;;
6007;SDS011;3032;49.484;11.112;2023-06-19T07:23:26;5.78;;;5.38;;
6007;SDS011;3032;49.484;11.112;2023-06-19T07:25:52;5.97;;;5.47;;
6007;SDS011;3032;49.484;11.112;2023-06-19T07:28:17;5.63;;;5.13;;
6007;SDS011;3032;49.484;11.112;2023-06-19T07:30:43;5.90;;;5.50;;
6007;SDS011;3032;49.484;11.112;2023-06-19T07:33:09;4.85;;;4.55;;
6007;SDS011;3032;49.484;11.112;2023-06-19T07:35:34;5.83;;;5.33;;
6007;SDS011;3032;49.484;11.112;2023-06-19T07:38:00;6.33;;;5.33;;
6007;SDS011;3032;49.484;11.112;2023-06-19T07:40:26;5.10;;;4.33;;
6007;SDS011;3032;49.484;11.112;2023-06-19T07:42:51;5.37;;;4.97;;
6007;SDS011;3032;49.484;11.112;2023-06-19T07:45:17;5.23;;;4.73;;
6007;SDS011;3032;49.484;11.112;2023-06-19T07:47:42;4.60;;;4.20;;
6007;SDS011;3032;49.484;11.112;2023-06-19T07:50:08;5.00;;;4.50;;
6007;SDS011;3032;49.484;11.112;2023-06-19T07:52:34;4.73;;;4.43;;
6007;SDS011;3032;49.484;11.112;2023-06-19T07:54:59;5.67;;;5.10;;
6007;SDS011;3032;49.484;11.112;2023-06-19T07:57:25;5.40;;;4.90;;
6007;SDS011;3032;49.484;11.112;2023-06-19T07:59:52;7.82;;;4.50;;
6007;SDS011;3032;49.484;11.112;2023-06-19T08:02:18;4.00;;;3.80;;
6007;SDS011;3032;49.484;11.112;2023-06-19T08:04:44;4.13;;;3.93;;
6007;SDS011;3032;49.484;11.112;2023-06-19T08:07:10;4.10;;;3.80;;
6007;SDS011;3032;49.484;11.112;2023-06-19T08:09:36;4.30;;;4.00;;
6007;SDS011;3032;49.484;11.112;2023-06-19T08:12:02;4.37;;;3.97;;
6007;SDS011;3032;49.484;11.112;2023-06-19T08:14:27;4.80;;;4.50;;
6007;SDS011;3032;49.484;11.112;2023-06-19T08:16:53;5.40;;;4.63;;
6007;SDS011;3032;49.484;11.112;2023-06-19T08:19:19;4.95;;;4.30;;
6007;SDS011;3032;49.484;11.112;2023-06-19T08:21:45;9.70;;;4.53;;
6007;SDS011;3032;49.484;11.112;2023-06-19T08:24:10;5.87;;;5.00;;
6007;SDS011;3032;49.484;11.112;2023-06-19T08:26:36;4.50;;;4.20;;
6007;SDS011;3032;49.484;11.112;2023-06-19T08:29:01;4.20;;;3.73;;
6007;SDS011;3032;49.484;11.112;2023-06-19T08:31:28;4.40;;;4.00;;
6007;SDS011;3032;49.484;11.112;2023-06-19T08:33:54;3.47;;;3.27;;
6007;SDS011;3032;49.484;11.112;2023-06-19T08:36:20;4.03;;;3.63;;
6007;SDS011;3032;49.484;11.112;2023-06-19T08:38:46;3.63;;;3.07;;
6007;SDS011;3032;49.484;11.112;2023-06-19T08:41:18;3.88;;;3.58;;
6007;SDS011;3032;49.484;11.112;2023-06-19T08:43:45;3.35;;;3.15;;
6007;SDS011;3032;49.484;11.112;2023-06-19T08:46:12;3.63;;;3.42;;
6007;SDS011;3032;49.484;11.112;2023-06-19T08:48:42;4.13;;;3.33;;
6007;SDS011;3032;49.484;11.112;2023-06-19T08:51:09;3.40;;;3.20;;
6007;SDS011;3032;49.484;11.112;2023-06-19T08:53:36;3.47;;;3.38;;
6007;SDS011;3032;49.484;11.112;2023-06-19T08:56:08;4.57;;;3.40;;
6007;SDS011;3032;49.484;11.112;2023-06-19T08:58:34;4.17;;;3.77;;
6007;SDS011;3032;49.484;11.112;2023-06-19T09:01:00;4.13;;;3.63;;
6007;SDS011;3032;49.484;11.112;2023-06-19T09:03:25;4.00;;;3.80;;
6007;SDS011;3032;49.484;11.112;2023-06-19T09:05:51;3.90;;;3.60;;
6007;SDS011;3032;49.484;11.112;2023-06-19T09:08:17;3.33;;;3.03;;
6007;SDS011;3032;49.484;11.112;2023-06-19T09:11:00;4.05;;;3.75;;
6007;SDS011;3032;49.484;11.112;2023-06-19T09:13:26;3.65;;;3.35;;
6007;SDS011;3032;49.484;11.112;2023-06-19T09:15:59;4.07;;;3.10;;
6007;SDS011;3032;49.484;11.112;2023-06-19T09:18:31;5.47;;;3.67;;
6007;SDS011;3032;49.484;11.112;2023-06-19T09:21:14;3.47;;;3.28;;
6007;SDS011;3032;49.484;11.112;2023-06-19T09:23:44;3.75;;;3.45;;
6007;SDS011;3032;49.484;11.112;2023-06-19T09:26:11;3.10;;;2.90;;
6007;SDS011;3032;49.484;11.112;2023-06-19T09:28:40;3.42;;;3.22;;
6007;SDS011;3032;49.484;11.112;2023-06-19T09:31:09;3.20;;;3.05;;
6007;SDS011;3032;49.484;11.112;2023-06-19T09:33:35;3.83;;;3.53;;
6007;SDS011;3032;49.484;11.112;2023-06-19T09:36:02;3.60;;;3.40;;
6007;SDS011;3032;49.484;11.112;2023-06-19T09:38:31;3.40;;;3.10;;
6007;SDS011;3032;49.484;11.112;2023-06-19T09:41:02;3.47;;;3.28;;
6007;SDS011;3032;49.484;11.112;2023-06-19T09:43:39;3.20;;;3.00;;
6007;SDS011;3032;49.484;11.112;2023-06-19T09:46:07;2.88;;;2.78;;
6007;SDS011;3032;49.484;11.112;2023-06-19T09:48:35;3.35;;;3.25;;
6007;SDS011;3032;49.484;11.112;2023-06-19T09:51:10;3.53;;;3.33;;
6007;SDS011;3032;49.484;11.112;2023-06-19T09:53:38;3.05;;;2.80;;
6007;SDS011;3032;49.484;11.112;2023-06-19T09:56:04;3.08;;;2.88;;
6007;SDS011;3032;49.484;11.112;2023-06-19T09:58:30;3.27;;;3.07;;
6007;SDS011;3032;49.484;11.112;2023-06-19T10:00:57;2.97;;;2.88;;
6007;SDS011;3032;49.484;11.112;2023-06-19T10:03:31;3.85;;;3.55;;
6007;SDS011;3032;49.484;11.112;2023-06-19T10:05:59;3.10;;;2.90;;
6007;SDS011;3032;49.484;11.112;2023-06-19T10:08:26;3.10;;;2.83;;
6007;SDS011;3032;49.484;11.112;2023-06-19T10:10:56;2.60;;;2.50;;
6007;SDS011;3032;49.484;11.112;2023-06-19T10:13:30;3.30;;;3.20;;
6007;SDS011;3032;49.484;11.112;2023-06-19T10:15:56;4.45;;;2.75;;
6007;SDS011;3032;49.484;11.112;2023-06-19T10:18:22;3.23;;;3.03;;
6007;SDS011;3032;49.484;11.112;2023-06-19T10:20:50;4.07;;;3.77;;
6007;SDS011;3032;49.484;11.112;2023-06-19T10:25:44;4.60;;;4.22;;
6007;SDS011;3032;49.484;11.112;2023-06-19T10:28:20;4.88;;;4.00;;
6007;SDS011;3032;49.484;11.112;2023-06-19T10:30:52;3.92;;;3.63;;
6007;SDS011;3032;49.484;11.112;2023-06-19T10:33:19;4.40;;;4.18;;
6007;SDS011;3032;49.484;11.112;2023-06-19T10:35:45;4.60;;;4.20;;
6007;SDS011;3032;49.484;11.112;2023-06-19T10:38:10;4.60;;;4.40;;
6007;SDS011;3032;49.484;11.112;2023-06-19T10:40:40;9.20;;;4.05;;
6007;SDS011;3032;49.484;11.112;2023-06-19T10:43:06;4.33;;;4.10;;
6007;SDS011;3032;49.484;11.112;2023-06-19T10:45:31;4.27;;;4.00;;
6007;SDS011;3032;49.484;11.112;2023-06-19T10:47:57;6.80;;;4.30;;
6007;SDS011;3032;49.484;11.112;2023-06-19T10:50:26;4.80;;;4.50;;
6007;SDS011;3032;49.484;11.112;2023-06-19T10:52:52;4.20;;;3.90;;
6007;SDS011;3032;49.484;11.112;2023-06-19T10:55:20;4.65;;;4.45;;
6007;SDS011;3032;49.484;11.112;2023-06-19T10:57:47;4.38;;;4.13;;
6007;SDS011;3032;49.484;11.112;2023-06-19T11:00:24;4.40;;;4.00;;
6007;SDS011;3032;49.484;11.112;2023-06-19T11:02:55;4.55;;;4.25;;
6007;SDS011;3032;49.484;11.112;2023-06-19T11:05:21;4.80;;;3.50;;
6007;SDS011;3032;49.484;11.112;2023-06-19T11:07:51;4.20;;;3.90;;
6007;SDS011;3032;49.484;11.112;2023-06-19T11:10:24;3.50;;;3.40;;
6007;SDS011;3032;49.484;11.112;2023-06-19T11:12:53;3.80;;;3.60;;
6007;SDS011;3032;49.484;11.112;2023-06-19T11:15:20;3.78;;;3.53;;
6007;SDS011;3032;49.484;11.112;2023-06-19T11:17:52;5.38;;;4.47;;
6007;SDS011;3032;49.484;11.112;2023-06-19T11:20:18;4.77;;;4.47;;
6007;SDS011;3032;49.484;11.112;2023-06-19T11:22:43;4.47;;;4.10;;
6007;SDS011;3032;49.484;11.112;2023-06-19T11:25:09;4.60;;;4.30;;
6007;SDS011;3032;49.484;11.112;2023-06-19T11:27:36;5.40;;;4.07;;
6007;SDS011;3032;49.484;11.112;2023-06-19T11:30:04;5.82;;;4.18;;
6007;SDS011;3032;49.484;11.112;2023-06-19T11:32:35;4.55;;;4.25;;
6007;SDS011;3032;49.484;11.112;2023-06-19T11:35:09;4.38;;;4.07;;
6007;SDS011;3032;49.484;11.112;2023-06-19T11:37:37;4.32;;;4.03;;
6007;SDS011;3032;49.484;11.112;2023-06-19T11:40:05;4.75;;;4.43;;
6007;SDS011;3032;49.484;11.112;2023-06-19T11:42:51;4.47;;;4.10;;
6007;SDS011;3032;49.484;11.112;2023-06-19T11:45:17;4.40;;;4.20;;
6007;SDS011;3032;49.484;11.112;2023-06-19T11:47:46;4.13;;;3.93;;
6007;SDS011;3032;49.484;11.112;2023-06-19T11:50:13;4.30;;;4.00;;
6007;SDS011;3032;49.484;11.112;2023-06-19T11:52:41;4.70;;;4.30;;
6007;SDS011;3032;49.484;11.112;2023-06-19T11:55:09;4.05;;;3.85;;
6007;SDS011;3032;49.484;11.112;2023-06-19T11:57:34;4.23;;;3.83;;
6007;SDS011;3032;49.484;11.112;2023-06-19T12:00:00;3.80;;;3.70;;
6007;SDS011;3032;49.484;11.112;2023-06-19T12:02:26;5.65;;;4.55;;
6007;SDS011;3032;49.484;11.112;2023-06-19T12:04:52;4.40;;;4.20;;
6007;SDS011;3032;49.484;11.112;2023-06-19T12:07:18;3.83;;;3.63;;
6007;SDS011;3032;49.484;11.112;2023-06-19T12:09:44;4.47;;;4.07;;
6007;SDS011;3032;49.484;11.112;2023-06-19T12:12:09;4.40;;;4.20;;
6007;SDS011;3032;49.484;11.112;2023-06-19T12:14:35;4.10;;;3.90;;
6007;SDS011;3032;49.484;11.112;2023-06-19T12:17:01;3.30;;;3.20;;
6007;SDS011;3032;49.484;11.112;2023-06-19T12:19:27;3.63;;;3.33;;
6007;SDS011;3032;49.484;11.112;2023-06-19T12:21:52;3.20;;;3.10;;
6007;SDS011;3032;49.484;11.112;2023-06-19T12:24:18;3.07;;;2.97;;
6007;SDS011;3032;49.484;11.112;2023-06-19T12:26:44;3.60;;;3.30;;
6007;SDS011;3032;49.484;11.112;2023-06-19T12:29:10;4.13;;;3.93;;
6007;SDS011;3032;49.484;11.112;2023-06-19T12:31:35;3.80;;;3.50;;
6007;SDS011;3032;49.484;11.112;2023-06-19T12:34:01;4.30;;;4.00;;
6007;SDS011;3032;49.484;11.112;2023-06-19T12:36:27;3.97;;;3.67;;
6007;SDS011;3032;49.484;11.112;2023-06-19T12:38:53;4.30;;;4.00;;
6007;SDS011;3032;49.484;11.112;2023-06-19T12:41:22;3.90;;;3.60;;
6007;SDS011;3032;49.484;11.112;2023-06-19T12:43:48;4.13;;;3.92;;
6007;SDS011;3032;49.484;11.112;2023-06-19T12:46:14;4.28;;;3.97;;
6007;SDS011;3032;49.484;11.112;2023-06-19T12:48:43;4.47;;;3.30;;
6007;SDS011;3032;49.484;11.112;2023-06-19T12:51:08;5.68;;;3.88;;
6007;SDS011;3032;49.484;11.112;2023-06-19T12:53:34;3.67;;;3.37;;
6007;SDS011;3032;49.484;11.112;2023-06-19T12:55:59;3.30;;;3.20;;
6007;SDS011;3032;49.484;11.112;2023-06-19T12:58:25;3.97;;;3.67;;
6007;SDS011;3032;49.484;11.112;2023-06-19T13:00:51;4.63;;;4.33;;
6007;SDS011;3032;49.484;11.112;2023-06-19T13:03:18;4.63;;;4.22;;
6007;SDS011;3032;49.484;11.112;2023-06-19T13:05:44;3.53;;;3.33;;
6007;SDS011;3032;49.484;11.112;2023-06-19T13:08:10;4.22;;;4.03;;
6007;SDS011;3032;49.484;11.112;2023-06-19T13:10:36;3.87;;;3.73;;
6007;SDS011;3032;49.484;11.112;2023-06-19T13:13:01;4.93;;;4.53;;
6007;SDS011;3032;49.484;11.112;2023-06-19T13:15:27;4.30;;;4.00;;
6007;SDS011;3032;49.484;11.112;2023-06-19T13:17:53;4.13;;;3.90;;
6007;SDS011;3032;49.484;11.112;2023-06-19T13:20:18;4.80;;;4.50;;
6007;SDS011;3032;49.484;11.112;2023-06-19T13:22:44;4.07;;;3.87;;
6007;SDS011;3032;49.484;11.112;2023-06-19T13:25:10;4.63;;;4.40;;
6007;SDS011;3032;49.484;11.112;2023-06-19T13:27:35;5.47;;;5.07;;
6007;SDS011;3032;49.484;11.112;2023-06-19T13:30:01;5.67;;;5.17;;
6007;SDS011;3032;49.484;11.112;2023-06-19T13:32:27;7.65;;;5.13;;
6007;SDS011;3032;49.484;11.112;2023-06-19T13:34:53;4.53;;;4.17;;
6007;SDS011;3032;49.484;11.112;2023-06-19T13:37:18;4.70;;;4.10;;
6007;SDS011;3032;49.484;11.112;2023-06-19T13:39:44;4.33;;;4.03;;
6007;SDS011;3032;49.484;11.112;2023-06-19T13:42:10;7.90;;;4.70;;
6007;SDS011;3032;49.484;11.112;2023-06-19T13:44:37;4.50;;;4.30;;
6007;SDS011;3032;49.484;11.112;2023-06-19T13:47:05;4.40;;;4.15;;
6007;SDS011;3032;49.484;11.112;2023-06-19T13:49:31;4.83;;;4.53;;
6007;SDS011;3032;49.484;11.112;2023-06-19T13:51:56;5.07;;;4.80;;
6007;SDS011;3032;49.484;11.112;2023-06-19T13:54:22;5.30;;;4.83;;
6007;SDS011;3032;49.484;11.112;2023-06-19T13:56:47;5.80;;;4.87;;
6007;SDS011;3032;49.484;11.112;2023-06-19T13:59:14;5.38;;;5.00;;
6007;SDS011;3032;49.484;11.112;2023-06-19T14:01:40;5.10;;;4.80;;
6007;SDS011;3032;49.484;11.112;2023-06-19T14:04:06;5.68;;;5.28;;
6007;SDS011;3032;49.484;11.112;2023-06-19T14:06:33;6.28;;;5.38;;
6007;SDS011;3032;49.484;11.112;2023-06-19T14:08:59;5.40;;;5.10;;
6007;SDS011;3032;49.484;11.112;2023-06-19T14:11:25;5.03;;;4.63;;
6007;SDS011;3032;49.484;11.112;2023-06-19T14:13:50;6.13;;;5.13;;
6007;SDS011;3032;49.484;11.112;2023-06-19T14:16:16;4.97;;;4.70;;
6007;SDS011;3032;49.484;11.112;2023-06-19T14:18:41;5.20;;;4.80;;
6007;SDS011;3032;49.484;11.112;2023-06-19T14:21:07;5.20;;;4.67;;
6007;SDS011;3032;49.484;11.112;2023-06-19T14:23:32;5.00;;;4.70;;
6007;SDS011;3032;49.484;11.112;2023-06-19T14:26:03;5.00;;;4.70;;
6007;SDS011;3032;49.484;11.112;2023-06-19T14:28:29;5.83;;;5.40;;
6007;SDS011;3032;49.484;11.112;2023-06-19T14:30:54;5.00;;;4.70;;
6007;SDS011;3032;49.484;11.112;2023-06-19T14:33:20;5.77;;;5.20;;
6007;SDS011;3032;49.484;11.112;2023-06-19T14:35:45;5.53;;;5.13;;
6007;SDS011;3032;49.484;11.112;2023-06-19T14:38:14;5.73;;;5.23;;
6007;SDS011;3032;49.484;11.112;2023-06-19T14:40:41;5.93;;;5.43;;
6007;SDS011;3032;49.484;11.112;2023-06-19T14:43:07;5.45;;;4.95;;
6007;SDS011;3032;49.484;11.112;2023-06-19T14:45:34;5.10;;;4.60;;
6007;SDS011;3032;49.484;11.112;2023-06-19T14:48:00;4.60;;;4.20;;
6007;SDS011;3032;49.484;11.112;2023-06-19T14:50:26;3.97;;;3.67;;
6007;SDS011;3032;49.484;11.112;2023-06-19T14:52:51;4.27;;;3.97;;
6007;SDS011;3032;49.484;11.112;2023-06-19T14:55:17;4.03;;;3.73;;
6007;SDS011;3032;49.484;11.112;2023-06-19T14:57:42;4.73;;;4.33;;